Time;durP1;ratioP1;P1;durP2;ratioP2;P2;SDS_P1;SDS_P2;PMS_P1;PMS_P2;Temp;Humidity;BMP_temperature;BMP_pressure;BME280_temperature;BME280_humidity;BME280_pressure;Samples;Min_cycle;Max_cycle;Signal;HPM_P1;HPM_P2
2023/07/27 00:02:13;;;;;;;;;;;17.50;99.90;;;;;;5040969;28;19932;-83
2023/07/27 00:04:41;;;;;;;;;;;17.50;99.90;;;;;;5041557;28;19921;-83
2023/07/27 00:07:16;;;;;;;;;;;17.40;99.90;;;;;;5039611;28;19916;-83
2023/07/27 00:09:44;;;;;;;;;;;17.40;99.90;;;;;;5034009;28;20317;-83
2023/07/27 00:12:10;;;;;;;;;;;17.40;99.90;;;;;;5041669;28;19909;-83
2023/07/27 00:14:44;;;;;;;;;;;17.40;99.90;;;;;;5041456;28;19931;-82
2023/07/27 00:17:15;;;;;;;;;;;17.40;99.90;;;;;;5042309;28;19927;-82
2023/07/27 00:19:44;;;;;;;;;;;17.40;99.90;;;;;;5040553;28;19925;-82
2023/07/27 00:22:12;;;;;;;;;;;17.40;99.90;;;;;;5049966;28;19925;-83
2023/07/27 00:24:49;;;;;;;;;;;17.50;99.90;;;;;;5035298;28;19929;-84
2023/07/27 00:27:14;;;;;;;;;;;17.50;99.90;;;;;;5042368;28;19944;-83
2023/07/27 00:29:40;;;;;;;;;;;17.50;99.90;;;;;;5060943;28;19960;-81
2023/07/27 00:32:06;;;;;;;;;;;17.50;99.90;;;;;;5061166;28;19908;-81
2023/07/27 00:34:31;;;;;;;;;;;17.50;99.90;;;;;;5041513;28;19913;-82
2023/07/27 00:36:57;;;;;;;;;;;17.50;99.90;;;;;;5061727;28;19908;-82
2023/07/27 00:39:25;;;;;;;;;;;17.50;99.90;;;;;;5043223;28;20461;-83
2023/07/27 00:41:50;;;;;;;;;;;17.50;99.90;;;;;;5061474;28;20356;-83
2023/07/27 00:44:16;;;;;;;;;;;17.50;99.90;;;;;;5042527;28;19954;-82
2023/07/27 00:46:42;;;;;;;;;;;17.50;99.90;;;;;;5041998;28;19921;-83
2023/07/27 00:49:08;;;;;;;;;;;17.50;99.90;;;;;;5039912;28;19912;-82
2023/07/27 00:51:34;;;;;;;;;;;17.50;99.90;;;;;;5041680;28;19934;-84
2023/07/27 00:54:00;;;;;;;;;;;17.40;99.90;;;;;;5037414;28;20352;-85
2023/07/27 00:56:28;;;;;;;;;;;17.30;99.90;;;;;;5060287;28;20384;-85
2023/07/27 00:59:00;;;;;;;;;;;17.00;99.90;;;;;;5037558;28;19909;-84
2023/07/27 01:01:31;;;;;;;;;;;16.90;99.90;;;;;;5037347;28;19916;-84
2023/07/27 01:03:56;;;;;;;;;;;16.70;99.90;;;;;;5040505;28;19917;-84
2023/07/27 01:06:25;;;;;;;;;;;16.50;99.90;;;;;;5046353;28;19943;-83
2023/07/27 01:09:01;;;;;;;;;;;16.40;99.90;;;;;;5064948;28;19943;-83
2023/07/27 01:11:38;;;;;;;;;;;16.40;99.90;;;;;;5063324;28;19916;-84
2023/07/27 01:14:23;;;;;;;;;;;16.30;99.90;;;;;;5046424;28;19916;-84
2023/07/27 01:16:54;;;;;;;;;;;16.30;99.90;;;;;;5062314;28;19908;-84
2023/07/27 01:19:37;;;;;;;;;;;16.30;99.90;;;;;;5063770;28;20419;-84
2023/07/27 01:22:25;;;;;;;;;;;16.20;99.90;;;;;;5046451;28;19924;-85
2023/07/27 01:24:57;;;;;;;;;;;16.10;99.90;;;;;;5007817;28;19924;-84
2023/07/27 01:27:32;;;;;;;;;;;16.00;99.90;;;;;;5040775;28;19926;-86
2023/07/27 01:30:19;;;;;;;;;;;15.90;99.90;;;;;;5064980;28;19916;-85
2023/07/27 01:33:09;;;;;;;;;;;15.80;99.90;;;;;;5064139;28;19928;-87
2023/07/27 01:35:58;;;;;;;;;;;15.70;99.90;;;;;;5064063;28;19921;-87
2023/07/27 01:38:28;;;;;;;;;;;15.60;99.90;;;;;;5032799;28;20352;-86
2023/07/27 01:41:00;;;;;;;;;;;15.50;99.90;;;;;;5064055;28;20058;-87
2023/07/27 01:43:32;;;;;;;;;;;15.50;99.90;;;;;;5043301;28;19920;-87
2023/07/27 01:46:01;;;;;;;;;;;15.50;99.90;;;;;;5036900;28;19912;-88
2023/07/27 01:48:27;;;;;;;;;;;15.40;99.90;;;;;;5062742;28;19923;-89
2023/07/27 01:51:05;;;;;;;;;;;15.40;99.90;;;;;;5043531;28;19916;-90
2023/07/27 01:53:34;;;;;;;;;;;15.30;99.90;;;;;;5066549;28;19921;-89
2023/07/27 01:56:06;;;;;;;;;;;15.40;99.90;;;;;;5044186;28;19927;-90
2023/07/27 01:58:41;;;;;;;;;;;15.40;99.90;;;;;;5043073;28;20016;-91
2023/07/27 02:01:12;;;;;;;;;;;15.40;99.90;;;;;;5071907;28;19909;-91
2023/07/27 02:03:38;;;;;;;;;;;15.40;99.90;;;;;;5067201;28;20009;-92
2023/07/27 02:06:07;;;;;;;;;;;15.30;99.90;;;;;;5048337;28;19971;-92
2023/07/27 02:08:32;;;;;;;;;;;15.30;99.90;;;;;;5055348;28;19912;-93
2023/07/27 02:11:12;;;;;;;;;;;15.20;99.90;;;;;;5038484;28;20237;-94
2023/07/27 02:13:43;;;;;;;;;;;15.20;99.90;;;;;;5057952;28;19923;-94
2023/07/27 02:16:26;;;;;;;;;;;15.30;99.90;;;;;;5054359;28;19930;-94
2023/07/27 02:18:54;;;;;;;;;;;15.20;99.90;;;;;;5051814;28;20344;-94
2023/07/27 02:21:20;;;;;;;;;;;15.30;99.90;;;;;;5048547;28;19913;-94
2023/07/27 02:23:57;;;;;;;;;;;15.20;99.90;;;;;;5056421;28;19904;-96
2023/07/27 02:26:24;;;;;;;;;;;15.20;99.90;;;;;;5072157;28;19927;-95
2023/07/27 02:29:04;;;;;;;;;;;15.20;99.90;;;;;;5071885;28;20348;-95
2023/07/27 02:31:34;;;;;;;;;;;15.20;99.90;;;;;;5063102;28;19916;-94
2023/07/27 02:34:01;;;;;;;;;;;15.20;99.90;;;;;;5071466;28;19942;-95
2023/07/27 02:36:28;;;;;;;;;;;15.10;99.90;;;;;;5070766;28;20050;-95
2023/07/27 02:38:55;;;;;;;;;;;15.10;99.90;;;;;;5052640;28;19908;-93
2023/07/27 02:41:20;;;;;;;;;;;15.10;99.90;;;;;;5054262;28;19908;-95
2023/07/27 02:43:48;;;;;;;;;;;15.10;99.90;;;;;;5070830;28;20226;-94
2023/07/27 02:46:28;;;;;;;;;;;15.10;99.90;;;;;;5055125;28;19999;-95
2023/07/27 02:49:00;;;;;;;;;;;15.00;99.90;;;;;;5055706;28;20408;-96
2023/07/27 02:51:44;;;;;;;;;;;15.00;99.90;;;;;;5057532;28;19917;-95
2023/07/27 02:54:14;;;;;;;;;;;15.00;99.90;;;;;;5058588;28;20007;-92
2023/07/27 02:56:42;;;;;;;;;;;15.00;99.90;;;;;;5040102;28;19920;-96
2023/07/27 02:59:12;;;;;;;;;;;14.90;99.90;;;;;;5050347;28;19909;-96
2023/07/27 03:02:04;;;;;;;;;;;14.90;99.90;;;;;;5047965;28;19909;-95
2023/07/27 03:04:43;;;;;;;;;;;14.90;99.90;;;;;;5071737;28;19919;-96
2023/07/27 03:07:15;;;;;;;;;;;14.90;99.90;;;;;;5051409;28;19911;-95
2023/07/27 03:09:40;;;;;;;;;;;14.90;99.90;;;;;;5050877;28;20304;-95
2023/07/27 03:12:09;;;;;;;;;;;14.90;99.90;;;;;;5053305;28;19916;-95
2023/07/27 03:14:38;;;;;;;;;;;14.80;99.90;;;;;;5051098;28;20007;-95
2023/07/27 03:17:25;;;;;;;;;;;14.80;99.90;;;;;;5047353;28;19916;-96
2023/07/27 03:23:40;;;;;;;;;;;14.90;99.90;;;;;;4976283;28;19929;-96
2023/07/27 03:26:10;;;;;;;;;;;14.90;99.90;;;;;;5042170;22;19935;-85
2023/07/27 03:28:35;;;;;;;;;;;14.80;99.90;;;;;;5062057;28;19917;-85
2023/07/27 03:31:00;;;;;;;;;;;14.80;99.90;;;;;;5060391;28;19913;-86
2023/07/27 03:33:26;;;;;;;;;;;14.80;99.90;;;;;;5062026;28;19931;-87
2023/07/27 03:35:51;;;;;;;;;;;14.80;99.90;;;;;;5055356;28;19934;-88
2023/07/27 03:38:17;;;;;;;;;;;14.80;99.90;;;;;;5061966;28;19917;-87
2023/07/27 03:40:42;;;;;;;;;;;14.70;99.90;;;;;;5063849;28;20328;-88
2023/07/27 03:43:08;;;;;;;;;;;14.70;99.90;;;;;;5063551;28;19924;-85
2023/07/27 03:45:33;;;;;;;;;;;14.70;99.90;;;;;;5060404;28;19929;-86
2023/07/27 03:47:59;;;;;;;;;;;14.70;99.90;;;;;;5062049;28;20581;-87
2023/07/27 03:50:24;;;;;;;;;;;14.70;99.90;;;;;;5062088;28;20305;-87
2023/07/27 03:52:50;;;;;;;;;;;14.60;99.90;;;;;;5061455;28;19964;-86
2023/07/27 03:55:18;;;;;;;;;;;14.60;99.90;;;;;;5062669;28;19920;-87
2023/07/27 03:57:45;;;;;;;;;;;14.60;99.90;;;;;;5061211;28;20338;-87
2023/07/27 04:00:11;;;;;;;;;;;14.60;99.90;;;;;;5053874;28;19920;-87
2023/07/27 04:02:36;;;;;;;;;;;14.60;99.90;;;;;;5061915;28;19917;-86
2023/07/27 04:05:02;;;;;;;;;;;14.60;99.90;;;;;;5062620;28;19913;-87
2023/07/27 04:07:27;;;;;;;;;;;14.60;99.90;;;;;;5058506;28;19916;-86
2023/07/27 04:09:53;;;;;;;;;;;14.60;99.90;;;;;;5062236;28;19990;-87
2023/07/27 04:12:18;;;;;;;;;;;14.50;99.90;;;;;;5055074;28;20433;-86
2023/07/27 04:14:44;;;;;;;;;;;14.50;99.90;;;;;;5061543;28;19913;-86
2023/07/27 04:17:09;;;;;;;;;;;14.60;99.90;;;;;;5061366;28;20003;-86
2023/07/27 04:19:35;;;;;;;;;;;14.60;99.90;;;;;;5062121;28;19921;-84
2023/07/27 04:22:01;;;;;;;;;;;14.60;99.90;;;;;;5053447;28;20302;-85
2023/07/27 04:24:27;;;;;;;;;;;14.60;99.90;;;;;;5052079;28;19966;-85
2023/07/27 04:26:52;;;;;;;;;;;14.60;99.90;;;;;;5062475;28;19925;-85
2023/07/27 04:29:17;;;;;;;;;;;14.60;99.90;;;;;;5060914;28;20015;-87
2023/07/27 04:31:43;;;;;;;;;;;14.60;99.90;;;;;;5061153;28;19916;-87
2023/07/27 04:34:08;;;;;;;;;;;14.50;99.90;;;;;;5078211;28;19920;-87
2023/07/27 04:36:34;;;;;;;;;;;14.50;99.90;;;;;;5053451;28;19927;-86
2023/07/27 04:38:59;;;;;;;;;;;14.50;99.90;;;;;;5064276;28;20370;-85
2023/07/27 04:41:25;;;;;;;;;;;14.50;99.90;;;;;;5057877;28;19913;-86
2023/07/27 04:43:50;;;;;;;;;;;14.50;99.90;;;;;;5062527;28;19959;-85
2023/07/27 04:46:16;;;;;;;;;;;14.60;99.90;;;;;;5060101;28;20508;-86
2023/07/27 04:48:41;;;;;;;;;;;14.60;99.90;;;;;;5055100;28;19924;-85
2023/07/27 04:51:06;;;;;;;;;;;14.60;99.90;;;;;;5063652;28;20682;-85
2023/07/27 04:53:32;;;;;;;;;;;14.60;99.90;;;;;;5057432;28;19924;-85
2023/07/27 04:55:57;;;;;;;;;;;14.60;99.90;;;;;;5064043;28;22251;-85
2023/07/27 04:58:23;;;;;;;;;;;14.60;99.90;;;;;;5061263;28;19942;-85
2023/07/27 05:00:53;;;;;;;;;;;14.60;99.90;;;;;;5061893;28;19948;-86
2023/07/27 05:03:18;;;;;;;;;;;14.60;99.90;;;;;;5062340;28;19920;-84
2023/07/27 05:05:44;;;;;;;;;;;14.60;99.90;;;;;;5062938;28;19928;-85
2023/07/27 05:08:09;;;;;;;;;;;14.60;99.90;;;;;;5061674;28;20365;-85
2023/07/27 05:10:35;;;;;;;;;;;14.60;99.90;;;;;;5078872;28;20369;-86
2023/07/27 05:13:00;;;;;;;;;;;14.60;99.90;;;;;;5063981;28;20075;-85
2023/07/27 05:15:26;;;;;;;;;;;14.70;99.90;;;;;;5062175;28;19916;-86
2023/07/27 05:17:51;;;;;;;;;;;14.70;99.90;;;;;;5064875;28;19916;-85
2023/07/27 05:20:17;;;;;;;;;;;14.70;99.90;;;;;;5054673;28;19912;-85
2023/07/27 05:22:42;;;;;;;;;;;14.70;99.90;;;;;;5064720;28;20401;-86
2023/07/27 05:25:10;;;;;;;;;;;14.70;99.90;;;;;;5065779;28;19924;-86
2023/07/27 05:27:36;;;;;;;;;;;14.70;99.90;;;;;;5063326;28;19921;-86
2023/07/27 05:30:02;;;;;;;;;;;14.80;99.90;;;;;;5066844;28;19916;-87
2023/07/27 05:32:27;;;;;;;;;;;14.80;99.90;;;;;;5056136;28;19928;-86
2023/07/27 05:34:54;;;;;;;;;;;14.80;99.90;;;;;;5064779;28;19940;-86
2023/07/27 05:37:20;;;;;;;;;;;14.80;99.90;;;;;;5063480;28;19921;-86
2023/07/27 05:39:45;;;;;;;;;;;14.80;99.90;;;;;;5065079;28;21070;-85
2023/07/27 05:42:10;;;;;;;;;;;14.80;99.90;;;;;;5056713;28;19916;-85
2023/07/27 05:44:36;;;;;;;;;;;14.80;99.90;;;;;;5063381;28;20003;-85
2023/07/27 05:47:02;;;;;;;;;;;14.80;99.90;;;;;;5056161;28;19970;-85
2023/07/27 05:49:28;;;;;;;;;;;14.80;99.90;;;;;;5063588;28;19946;-85
2023/07/27 05:51:53;;;;;;;;;;;14.80;99.90;;;;;;5065475;28;19916;-85
2023/07/27 05:54:18;;;;;;;;;;;14.90;99.90;;;;;;5062079;28;19921;-85
2023/07/27 05:56:44;;;;;;;;;;;14.90;99.90;;;;;;5079457;28;20008;-85
2023/07/27 05:59:09;;;;;;;;;;;14.90;99.90;;;;;;5063469;28;19920;-85
2023/07/27 06:01:35;;;;;;;;;;;14.90;99.90;;;;;;5064020;28;20000;-85
2023/07/27 06:04:02;;;;;;;;;;;14.90;99.90;;;;;;5056232;28;19916;-85
2023/07/27 06:06:28;;;;;;;;;;;14.90;99.90;;;;;;5065130;28;20026;-84
2023/07/27 06:08:53;;;;;;;;;;;15.00;99.90;;;;;;5063426;28;20520;-85
2023/07/27 06:11:19;;;;;;;;;;;15.00;99.90;;;;;;5064253;28;19917;-83
2023/07/27 06:13:45;;;;;;;;;;;15.00;99.90;;;;;;5058288;28;22225;-85
2023/07/27 06:16:10;;;;;;;;;;;15.10;99.90;;;;;;5054944;28;19995;-84
2023/07/27 06:18:36;;;;;;;;;;;15.10;99.90;;;;;;5063167;28;19920;-85
2023/07/27 06:21:01;;;;;;;;;;;15.10;99.90;;;;;;5063497;28;20294;-86
2023/07/27 06:23:27;;;;;;;;;;;15.20;99.90;;;;;;5063309;28;19920;-84
2023/07/27 06:25:53;;;;;;;;;;;15.20;99.90;;;;;;5056322;28;20309;-84
2023/07/27 06:28:18;;;;;;;;;;;15.20;99.90;;;;;;5060652;28;19921;-83
2023/07/27 06:30:45;;;;;;;;;;;15.20;99.90;;;;;;5064356;28;19921;-83
2023/07/27 06:33:11;;;;;;;;;;;15.20;99.90;;;;;;5062626;28;19928;-84
2023/07/27 06:35:37;;;;;;;;;;;15.30;99.90;;;;;;5055016;28;19912;-83
2023/07/27 06:38:02;;;;;;;;;;;15.30;99.90;;;;;;5055170;28;19956;-83
2023/07/27 06:40:28;;;;;;;;;;;15.30;99.90;;;;;;5061155;28;19923;-83
2023/07/27 06:42:53;;;;;;;;;;;15.30;99.90;;;;;;5062333;28;19985;-83
2023/07/27 06:45:18;;;;;;;;;;;15.40;99.90;;;;;;5063564;28;20543;-83
2023/07/27 06:47:44;;;;;;;;;;;15.40;99.90;;;;;;5053579;28;20374;-83
2023/07/27 06:50:09;;;;;;;;;;;15.40;99.90;;;;;;5062492;28;19963;-85
2023/07/27 06:52:35;;;;;;;;;;;15.40;99.90;;;;;;5054722;28;19928;-84
2023/07/27 06:55:00;;;;;;;;;;;15.40;99.90;;;;;;5063382;28;19927;-85
2023/07/27 06:57:26;;;;;;;;;;;15.40;99.90;;;;;;5054693;28;19916;-85
2023/07/27 06:59:52;;;;;;;;;;;15.50;99.90;;;;;;5062044;28;19920;-86
2023/07/27 07:02:17;;;;;;;;;;;15.50;99.90;;;;;;5054309;28;20370;-84
2023/07/27 07:04:43;;;;;;;;;;;15.50;99.90;;;;;;5062509;28;20826;-84
2023/07/27 07:07:09;;;;;;;;;;;15.60;99.90;;;;;;5063005;28;20448;-84
2023/07/27 07:09:35;;;;;;;;;;;15.60;99.90;;;;;;5079336;28;19916;-86
2023/07/27 07:12:02;;;;;;;;;;;15.60;99.90;;;;;;5061052;28;19912;-85
2023/07/27 07:14:27;;;;;;;;;;;15.60;99.90;;;;;;5062390;28;19932;-85
2023/07/27 07:16:53;;;;;;;;;;;15.70;99.90;;;;;;5053758;28;19916;-84
2023/07/27 07:19:18;;;;;;;;;;;15.70;99.90;;;;;;5054784;28;20216;-84
2023/07/27 07:21:44;;;;;;;;;;;15.80;99.90;;;;;;5062960;28;19974;-83
2023/07/27 07:24:09;;;;;;;;;;;15.80;99.90;;;;;;5062553;28;20445;-85
2023/07/27 07:26:35;;;;;;;;;;;15.90;99.90;;;;;;5055077;28;19928;-85
2023/07/27 07:29:01;;;;;;;;;;;15.90;99.90;;;;;;5060894;28;20458;-84
2023/07/27 07:31:26;;;;;;;;;;;15.90;99.90;;;;;;5061541;28;19912;-86
2023/07/27 07:33:52;;;;;;;;;;;16.00;99.90;;;;;;5078805;28;20070;-85
2023/07/27 07:36:18;;;;;;;;;;;16.00;99.90;;;;;;5062438;28;19920;-86
2023/07/27 07:38:44;;;;;;;;;;;16.10;99.90;;;;;;5053700;28;19917;-84
2023/07/27 07:41:09;;;;;;;;;;;16.20;99.90;;;;;;5054637;28;20359;-84
2023/07/27 07:43:35;;;;;;;;;;;16.30;99.90;;;;;;5076663;28;19951;-84
2023/07/27 07:46:00;;;;;;;;;;;16.30;99.90;;;;;;5054459;28;19920;-84
2023/07/27 07:48:26;;;;;;;;;;;16.30;99.90;;;;;;5061178;28;20298;-86
2023/07/27 07:50:51;;;;;;;;;;;16.40;99.90;;;;;;5061660;28;19951;-87
2023/07/27 07:53:17;;;;;;;;;;;16.50;99.90;;;;;;5062025;28;19920;-86
2023/07/27 07:55:42;;;;;;;;;;;16.50;99.90;;;;;;5061967;28;20728;-86
2023/07/27 07:58:08;;;;;;;;;;;16.50;99.90;;;;;;5059424;28;20003;-87
2023/07/27 08:00:33;;;;;;;;;;;16.60;99.90;;;;;;5053324;28;19935;-87
2023/07/27 08:02:59;;;;;;;;;;;16.60;99.90;;;;;;5063156;28;20390;-86
2023/07/27 08:05:24;;;;;;;;;;;16.70;99.90;;;;;;5077882;28;19970;-88
2023/07/27 08:07:50;;;;;;;;;;;16.80;99.90;;;;;;5063571;28;19916;-88
2023/07/27 08:10:16;;;;;;;;;;;16.80;99.90;;;;;;5065561;28;20298;-88
2023/07/27 08:12:41;;;;;;;;;;;16.90;99.90;;;;;;5058202;28;19921;-85
2023/07/27 08:15:07;;;;;;;;;;;17.00;99.90;;;;;;5065467;28;19947;-87
2023/07/27 08:17:32;;;;;;;;;;;17.10;99.90;;;;;;5063706;28;19934;-87
2023/07/27 08:19:58;;;;;;;;;;;17.00;99.90;;;;;;5065196;28;19939;-86
2023/07/27 08:22:26;;;;;;;;;;;17.10;99.90;;;;;;5058631;28;20366;-86
2023/07/27 08:24:52;;;;;;;;;;;17.10;99.90;;;;;;5081557;28;19920;-85
2023/07/27 08:27:18;;;;;;;;;;;17.10;99.90;;;;;;5064002;28;19931;-85
2023/07/27 08:29:43;;;;;;;;;;;17.20;99.90;;;;;;5065794;28;19982;-87
2023/07/27 08:32:09;;;;;;;;;;;17.20;99.90;;;;;;5082927;28;19924;-86
2023/07/27 08:34:34;;;;;;;;;;;17.20;99.90;;;;;;5065386;28;19917;-86
2023/07/27 08:37:01;;;;;;;;;;;17.20;99.90;;;;;;5068171;28;20424;-88
2023/07/27 08:39:26;;;;;;;;;;;17.20;99.90;;;;;;5058649;28;20355;-88
2023/07/27 08:41:52;;;;;;;;;;;17.30;99.90;;;;;;5066306;28;19919;-87
2023/07/27 08:44:17;;;;;;;;;;;17.20;99.90;;;;;;5061115;28;19939;-87
2023/07/27 08:46:43;;;;;;;;;;;17.20;99.90;;;;;;5061588;28;19916;-84
2023/07/27 08:49:12;;;;;;;;;;;17.20;99.90;;;;;;5071777;28;19928;-87
2023/07/27 08:51:39;;;;;;;;;;;17.20;99.90;;;;;;5070736;28;20350;-89
2023/07/27 08:54:05;;;;;;;;;;;17.30;99.90;;;;;;5070372;28;19978;-86
2023/07/27 08:56:30;;;;;;;;;;;17.40;99.90;;;;;;5068885;28;19916;-87
2023/07/27 08:58:56;;;;;;;;;;;17.50;99.90;;;;;;5070132;28;19912;-86
2023/07/27 09:01:22;;;;;;;;;;;17.50;99.90;;;;;;5083578;28;20043;-87
2023/07/27 09:03:48;;;;;;;;;;;17.60;99.90;;;;;;5059342;28;19948;-86
2023/07/27 09:06:14;;;;;;;;;;;17.60;99.90;;;;;;5066245;28;19944;-87
2023/07/27 09:08:39;;;;;;;;;;;17.60;99.90;;;;;;5066154;28;19931;-86
2023/07/27 09:11:09;;;;;;;;;;;17.60;99.90;;;;;;5060131;28;20366;-86
2023/07/27 09:13:38;;;;;;;;;;;17.60;99.90;;;;;;5062046;28;19924;-86
2023/07/27 09:16:05;;;;;;;;;;;17.50;99.90;;;;;;5067600;28;19963;-87
2023/07/27 09:18:35;;;;;;;;;;;17.40;99.90;;;;;;5078435;28;20585;-87
2023/07/27 09:21:08;;;;;;;;;;;17.40;99.90;;;;;;5083107;28;20377;-85
2023/07/27 09:23:33;;;;;;;;;;;17.40;99.90;;;;;;5065037;28;19920;-86
2023/07/27 09:25:59;;;;;;;;;;;17.30;99.90;;;;;;5059835;28;19956;-86
2023/07/27 09:28:28;;;;;;;;;;;17.30;99.90;;;;;;5058776;28;19913;-85
2023/07/27 09:30:59;;;;;;;;;;;17.30;99.90;;;;;;5066058;28;19920;-87
2023/07/27 09:33:24;;;;;;;;;;;17.20;99.90;;;;;;5059209;28;19930;-85
2023/07/27 09:35:50;;;;;;;;;;;17.30;99.90;;;;;;5066248;28;20654;-86
2023/07/27 09:38:22;;;;;;;;;;;17.40;99.90;;;;;;5055983;28;19959;-85
2023/07/27 09:40:48;;;;;;;;;;;17.40;99.90;;;;;;5062060;28;20306;-85
2023/07/27 09:43:13;;;;;;;;;;;17.40;99.90;;;;;;5066530;28;19921;-85
2023/07/27 09:45:39;;;;;;;;;;;17.40;99.90;;;;;;5064163;28;19928;-85
2023/07/27 09:48:05;;;;;;;;;;;17.40;99.90;;;;;;5057055;28;19916;-85
2023/07/27 09:50:32;;;;;;;;;;;17.40;99.90;;;;;;5064038;28;19923;-85
2023/07/27 09:52:58;;;;;;;;;;;17.50;99.90;;;;;;5063709;28;19929;-85
2023/07/27 09:55:25;;;;;;;;;;;17.50;99.90;;;;;;5062047;28;19932;-84
2023/07/27 09:57:51;;;;;;;;;;;17.60;99.90;;;;;;5062502;28;19912;-85
2023/07/27 10:00:17;;;;;;;;;;;17.50;99.90;;;;;;5064555;28;19916;-84
2023/07/27 10:02:42;;;;;;;;;;;17.50;99.90;;;;;;5051426;28;19931;-83
2023/07/27 10:05:08;;;;;;;;;;;17.50;99.90;;;;;;5063440;28;19995;-83
2023/07/27 10:07:34;;;;;;;;;;;17.60;99.90;;;;;;5055695;28;19917;-85
2023/07/27 10:10:18;;;;;;;;;;;17.60;99.90;;;;;;5054728;28;19927;-85
2023/07/27 10:12:44;;;;;;;;;;;17.60;99.90;;;;;;5054832;28;19924;-83
2023/07/27 10:15:24;;;;;;;;;;;17.60;99.90;;;;;;5052831;28;19928;-84
2023/07/27 10:17:50;;;;;;;;;;;17.70;99.90;;;;;;5051954;28;19921;-85
2023/07/27 10:20:20;;;;;;;;;;;17.70;99.90;;;;;;5053793;28;19998;-83
2023/07/27 10:22:49;;;;;;;;;;;17.70;99.90;;;;;;5060679;28;19917;-85
2023/07/27 10:25:15;;;;;;;;;;;17.80;99.90;;;;;;5054384;28;19921;-85
2023/07/27 10:28:00;;;;;;;;;;;17.80;99.90;;;;;;5059360;28;19930;-84
2023/07/27 10:30:25;;;;;;;;;;;17.80;99.90;;;;;;5062205;28;19920;-84
2023/07/27 10:33:07;;;;;;;;;;;17.80;99.90;;;;;;5061534;28;19924;-87
2023/07/27 10:35:52;;;;;;;;;;;17.90;99.90;;;;;;5053586;28;20620;-87
2023/07/27 10:38:20;;;;;;;;;;;17.90;99.90;;;;;;5060977;28;20399;-87
2023/07/27 10:40:45;;;;;;;;;;;17.90;99.90;;;;;;5060867;28;20429;-87
2023/07/27 10:43:11;;;;;;;;;;;17.90;99.90;;;;;;5054764;28;20436;-88
2023/07/27 10:45:36;;;;;;;;;;;18.00;99.90;;;;;;5055371;28;20446;-86
2023/07/27 10:48:02;;;;;;;;;;;18.00;99.90;;;;;;5061501;28;20005;-87
2023/07/27 10:50:28;;;;;;;;;;;18.10;99.90;;;;;;5063442;28;20358;-88
2023/07/27 10:52:53;;;;;;;;;;;18.10;99.90;;;;;;5063186;28;19920;-88
2023/07/27 10:55:22;;;;;;;;;;;18.10;99.90;;;;;;5056848;28;19924;-88
2023/07/27 10:57:48;;;;;;;;;;;18.10;99.90;;;;;;5065159;28;19916;-87
2023/07/27 11:00:13;;;;;;;;;;;18.10;99.90;;;;;;5061899;28;19942;-86
2023/07/27 11:02:39;;;;;;;;;;;18.10;99.90;;;;;;5062939;28;19925;-86
2023/07/27 11:05:06;;;;;;;;;;;18.10;99.90;;;;;;5062598;28;20020;-88
2023/07/27 11:07:33;;;;;;;;;;;18.20;99.90;;;;;;5062607;28;20366;-85
2023/07/27 11:10:01;;;;;;;;;;;18.20;99.90;;;;;;5057127;28;19920;-86
2023/07/27 11:12:26;;;;;;;;;;;18.30;99.90;;;;;;5062060;28;19925;-86
2023/07/27 11:14:52;;;;;;;;;;;18.40;99.90;;;;;;5061293;28;19924;-83
2023/07/27 11:17:18;;;;;;;;;;;18.40;99.90;;;;;;5056178;28;19935;-87
2023/07/27 11:19:43;;;;;;;;;;;18.50;99.90;;;;;;5053959;28;19916;-87
2023/07/27 11:22:09;;;;;;;;;;;18.50;99.90;;;;;;5060711;28;19920;-87
2023/07/27 11:24:39;;;;;;;;;;;18.50;99.90;;;;;;5054848;28;20520;-87
2023/07/27 11:27:06;;;;;;;;;;;18.50;99.90;;;;;;5053147;28;19924;-86
2023/07/27 11:29:32;;;;;;;;;;;18.60;99.90;;;;;;5060930;28;19947;-86
2023/07/27 11:31:59;;;;;;;;;;;18.60;99.90;;;;;;5054101;28;19967;-87
2023/07/27 11:34:26;;;;;;;;;;;18.60;99.90;;;;;;5059296;28;19928;-88
2023/07/27 11:36:58;;;;;;;;;;;18.60;99.90;;;;;;5054859;28;20023;-88
2023/07/27 11:39:24;;;;;;;;;;;18.60;99.90;;;;;;5057750;28;19981;-88
2023/07/27 11:41:50;;;;;;;;;;;18.60;99.90;;;;;;5063538;28;19920;-88
2023/07/27 11:44:16;;;;;;;;;;;18.60;99.90;;;;;;5065682;28;19939;-87
2023/07/27 11:46:46;;;;;;;;;;;18.50;99.90;;;;;;5060613;28;19952;-87
2023/07/27 11:49:12;;;;;;;;;;;18.60;99.90;;;;;;5065452;28;19916;-86
2023/07/27 11:51:39;;;;;;;;;;;18.60;99.90;;;;;;5058678;28;20004;-87
2023/07/27 11:54:04;;;;;;;;;;;18.60;99.90;;;;;;5061907;28;20035;-88
2023/07/27 11:56:36;;;;;;;;;;;18.60;99.90;;;;;;5065089;28;20011;-88
2023/07/27 11:59:03;;;;;;;;;;;18.70;99.90;;;;;;5063720;28;19931;-86
2023/07/27 12:01:29;;;;;;;;;;;18.80;99.90;;;;;;5054678;28;19927;-86
2023/07/27 12:03:54;;;;;;;;;;;18.90;99.90;;;;;;5054519;28;19916;-85
2023/07/27 12:06:26;;;;;;;;;;;18.90;99.90;;;;;;5061559;28;20266;-88
2023/07/27 12:08:51;;;;;;;;;;;18.90;99.90;;;;;;5060875;28;19974;-88
2023/07/27 12:11:23;;;;;;;;;;;19.00;99.90;;;;;;5054383;28;19924;-87
2023/07/27 12:13:49;;;;;;;;;;;19.10;99.90;;;;;;5063832;28;20026;-87
2023/07/27 12:16:15;;;;;;;;;;;19.10;99.90;;;;;;5061896;28;19938;-87
2023/07/27 12:18:41;;;;;;;;;;;19.10;99.90;;;;;;5061858;28;19927;-86
2023/07/27 12:21:07;;;;;;;;;;;19.10;99.90;;;;;;5063471;28;19920;-87
2023/07/27 12:23:33;;;;;;;;;;;19.10;99.90;;;;;;5069191;28;19914;-85
2023/07/27 12:25:58;;;;;;;;;;;19.00;99.90;;;;;;5062962;28;19927;-86
2023/07/27 12:28:24;;;;;;;;;;;19.10;99.90;;;;;;5062956;28;20378;-86
2023/07/27 12:30:49;;;;;;;;;;;19.10;99.90;;;;;;5059560;28;19947;-88
2023/07/27 12:33:15;;;;;;;;;;;19.20;99.90;;;;;;5056604;28;19970;-87
2023/07/27 12:35:40;;;;;;;;;;;19.20;99.90;;;;;;5038185;28;19921;-88
2023/07/27 12:38:06;;;;;;;;;;;19.30;99.90;;;;;;5054850;28;19912;-87
2023/07/27 12:40:31;;;;;;;;;;;19.30;99.90;;;;;;5077236;28;19923;-89
2023/07/27 12:42:58;;;;;;;;;;;19.40;99.90;;;;;;5056574;28;20395;-87
2023/07/27 12:45:26;;;;;;;;;;;19.40;99.90;;;;;;5052266;28;19938;-87
2023/07/27 12:47:52;;;;;;;;;;;19.40;99.90;;;;;;5059753;28;19916;-86
2023/07/27 12:50:17;;;;;;;;;;;19.50;99.90;;;;;;5063497;28;19920;-90
2023/07/27 12:52:43;;;;;;;;;;;19.50;99.90;;;;;;5057012;28;19925;-87
2023/07/27 12:55:09;;;;;;;;;;;19.40;99.90;;;;;;5060997;28;20579;-88
2023/07/27 12:57:38;;;;;;;;;;;19.40;99.90;;;;;;5052533;28;20429;-90
2023/07/27 13:00:06;;;;;;;;;;;19.40;99.90;;;;;;5063093;28;19912;-89
2023/07/27 13:02:31;;;;;;;;;;;19.40;99.90;;;;;;5063503;28;19917;-88
2023/07/27 13:04:57;;;;;;;;;;;19.50;99.90;;;;;;5064816;28;19921;-88
2023/07/27 13:07:22;;;;;;;;;;;19.50;99.90;;;;;;5066327;28;19928;-88
2023/07/27 13:09:49;;;;;;;;;;;19.60;99.90;;;;;;5067159;28;20007;-89
2023/07/27 13:12:14;;;;;;;;;;;19.60;99.90;;;;;;5060008;28;19917;-87
2023/07/27 13:14:40;;;;;;;;;;;19.70;99.90;;;;;;5066088;28;19923;-88
2023/07/27 13:17:05;;;;;;;;;;;19.80;99.90;;;;;;5059047;28;19961;-88
2023/07/27 13:19:32;;;;;;;;;;;19.80;99.90;;;;;;5080375;28;19966;-88
2023/07/27 13:21:57;;;;;;;;;;;19.80;99.90;;;;;;5079795;28;19921;-89
2023/07/27 13:24:23;;;;;;;;;;;19.80;99.90;;;;;;5064878;28;19927;-90
2023/07/27 13:26:49;;;;;;;;;;;19.80;99.90;;;;;;5065224;28;20371;-88
2023/07/27 13:29:15;;;;;;;;;;;19.70;99.90;;;;;;5058976;28;19916;-88
2023/07/27 13:31:44;;;;;;;;;;;19.70;99.90;;;;;;5059328;28;19927;-89
2023/07/27 13:34:10;;;;;;;;;;;19.60;99.90;;;;;;5064120;28;19934;-88
2023/07/27 13:36:35;;;;;;;;;;;19.70;99.90;;;;;;5058824;28;19916;-89
2023/07/27 13:39:01;;;;;;;;;;;19.60;99.90;;;;;;5066725;28;19924;-88
2023/07/27 13:41:26;;;;;;;;;;;19.60;99.90;;;;;;5066385;28;20302;-87
2023/07/27 13:43:54;;;;;;;;;;;19.60;99.90;;;;;;5061038;28;19912;-88
2023/07/27 13:46:19;;;;;;;;;;;19.50;99.90;;;;;;5063919;28;19916;-90
2023/07/27 13:48:45;;;;;;;;;;;19.40;99.90;;;;;;5061405;28;19923;-91
2023/07/27 13:51:10;;;;;;;;;;;19.40;99.90;;;;;;5065301;28;19955;-89
2023/07/27 13:53:36;;;;;;;;;;;19.30;99.90;;;;;;5066559;28;19928;-91
2023/07/27 13:56:02;;;;;;;;;;;19.20;99.90;;;;;;5070490;28;19931;-89
2023/07/27 13:58:28;;;;;;;;;;;19.10;99.90;;;;;;5065445;28;19945;-88
2023/07/27 14:00:54;;;;;;;;;;;19.10;99.90;;;;;;5080585;28;19920;-87
2023/07/27 14:03:20;;;;;;;;;;;19.00;99.90;;;;;;5066436;28;19916;-88
2023/07/27 14:05:46;;;;;;;;;;;19.00;99.90;;;;;;5061306;28;19913;-87
2023/07/27 14:08:11;;;;;;;;;;;19.00;99.90;;;;;;5064512;28;19920;-91
2023/07/27 14:10:37;;;;;;;;;;;19.10;99.90;;;;;;5057623;28;19920;-88
2023/07/27 14:13:02;;;;;;;;;;;19.10;99.90;;;;;;5060008;28;19991;-90
2023/07/27 14:15:28;;;;;;;;;;;19.10;99.90;;;;;;5065344;28;19928;-89
2023/07/27 14:17:53;;;;;;;;;;;19.10;99.90;;;;;;5062298;28;19924;-89
2023/07/27 14:20:19;;;;;;;;;;;19.10;99.90;;;;;;5057140;28;20370;-88
2023/07/27 14:22:45;;;;;;;;;;;19.10;99.90;;;;;;5063907;28;19927;-90